Time;durP1;ratioP1;P1;durP2;ratioP2;P2;SDS_P1;SDS_P2;PMS_P1;PMS_P2;Temp;Humidity;BMP_temperature;BMP_pressure;BME280_temperature;BME280_humidity;BME280_pressure;Samples;Min_cycle;Max_cycle;Signal;HPM_P1;HPM_P2
2022/01/27 00:05:21;;;;;;;1.50;0.90;;;22.30;88.60;;;;;;4941151;28;95914;-59
2022/01/27 00:13:16;;;;;;;2.03;1.17;;;22.50;87.30;;;;;;4946241;28;95857;-60
2022/01/27 00:15:58;;;;;;;0.93;0.88;;;22.60;78.30;;;;;;4939375;28;97025;-59
2022/01/27 00:18:30;;;;;;;6.32;1.45;;;22.60;87.40;;;;;;4943079;28;95232;-60
2022/01/27 00:21:01;;;;;;;1.25;1.13;;;22.70;86.80;;;;;;4947544;28;96489;-59
2022/01/27 00:23:32;;;;;;;1.42;1.30;;;22.70;88.20;;;;;;4945097;28;96221;-57
2022/01/27 00:26:03;;;;;;;1.55;0.90;;;22.90;87.80;;;;;;4945205;28;95659;-56
2022/01/27 00:28:36;;;;;;;2.67;1.75;;;23.00;87.30;;;;;;4945761;28;95810;-57
2022/01/27 00:31:07;;;;;;;1.70;1.23;;;23.10;88.50;;;;;;4931226;28;98304;-59
2022/01/27 00:33:45;;;;;;;1.33;1.23;;;23.20;86.70;;;;;;4935579;28;99269;-61
2022/01/27 00:36:17;;;;;;;2.20;2.00;;;23.40;87.20;;;;;;4943242;28;95622;-57
2022/01/27 00:38:49;;;;;;;2.22;1.80;;;23.60;85.60;;;;;;4941592;28;96019;-59
2022/01/27 00:41:21;;;;;;;4.95;1.55;;;23.60;83.40;;;;;;4942588;28;96126;-60
2022/01/27 00:43:52;;;;;;;2.50;1.25;;;23.70;82.40;;;;;;4945183;28;95571;-63
2022/01/27 00:46:25;;;;;;;2.03;1.20;;;23.70;80.60;;;;;;4965139;28;96102;-64
2022/01/27 00:48:54;;;;;;;3.70;1.15;;;23.70;79.20;;;;;;4946098;28;95469;-59
2022/01/27 00:51:30;;;;;;;3.20;1.25;;;23.80;66.20;;;;;;4946249;28;97065;-59
2022/01/27 00:54:06;;;;;;;3.63;1.15;;;23.80;76.70;;;;;;4946442;28;95464;-59
2022/01/27 00:56:52;;;;;;;2.75;1.30;;;24.00;62.40;;;;;;4946339;28;95349;-58
2022/01/27 00:59:36;;;;;;;1.10;1.00;;;24.00;73.70;;;;;;4945241;28;95687;-57
2022/01/27 01:02:18;;;;;;;2.05;1.30;;;24.00;71.90;;;;;;4935281;28;96856;-59
2022/01/27 01:05:01;;;;;;;1.10;1.00;;;24.10;71.10;;;;;;4944327;28;96060;-60
2022/01/27 01:07:36;;;;;;;1.33;1.23;;;24.10;70.50;;;;;;4940508;28;96890;-61
2022/01/27 01:15:47;;;;;;;1.77;1.40;;;24.10;67.40;;;;;;4939532;28;98828;-59
2022/01/27 01:29:53;;;;;;;1.35;1.25;;;24.60;65.90;;;;;;4946097;28;95359;-58
2022/01/27 01:32:40;;;;;;;1.75;1.65;;;24.60;64.90;;;;;;4929210;28;96260;-56
2022/01/27 01:35:13;;;;;;;2.45;1.58;;;24.70;64.70;;;;;;4942358;28;96091;-59
2022/01/27 01:37:44;;;;;;;1.70;1.50;;;24.80;64.00;;;;;;4942302;28;98197;-59
2022/01/27 01:40:17;;;;;;;1.70;1.60;;;24.80;63.90;;;;;;4947193;28;98163;-59
2022/01/27 01:42:49;;;;;;;1.80;1.70;;;24.80;62.90;;;;;;4974176;28;96434;-59
2022/01/27 01:45:20;;;;;;;1.88;1.52;;;24.80;63.10;;;;;;4942857;28;96120;-59
2022/01/27 01:47:51;;;;;;;1.80;1.67;;;24.90;62.00;;;;;;4944341;28;95912;-63
2022/01/27 01:50:23;;;;;;;1.75;1.65;;;24.90;62.00;;;;;;4939680;28;95890;-63
2022/01/27 01:52:53;;;;;;;;;;;24.90;61.60;;;;;;4943843;28;95761;-61
2022/01/27 01:55:24;;;;;;;4.47;1.70;;;24.90;60.50;;;;;;4944656;28;96622;-63
2022/01/27 01:57:57;;;;;;;1.97;1.60;;;24.90;60.40;;;;;;4946350;28;95883;-61
2022/01/27 02:00:29;;;;;;;1.73;1.63;;;24.80;59.80;;;;;;4938784;28;95581;-59
2022/01/27 02:02:59;;;;;;;1.77;1.67;;;24.80;59.40;;;;;;4946406;28;95727;-58
2022/01/27 02:05:38;;;;;;;2.92;1.83;;;24.90;60.20;;;;;;4944282;28;96058;-61
2022/01/27 02:19:21;;;;;;;1.70;1.60;;;25.70;59.70;;;;;;4944086;28;95867;-62
2022/01/27 02:21:56;;;;;;;1.88;1.77;;;25.90;59.80;;;;;;4946268;28;95561;-62
2022/01/27 02:24:31;;;;;;;4.13;2.00;;;26.00;59.80;;;;;;4945795;28;95629;-60
2022/01/27 02:27:02;;;;;;;1.70;1.60;;;26.20;59.60;;;;;;4942604;28;96136;-60
2022/01/27 02:29:35;;;;;;;1.55;1.45;;;26.30;59.40;;;;;;4944482;28;96141;-59
2022/01/27 02:32:08;;;;;;;1.35;1.25;;;26.40;59.40;;;;;;4930452;28;96756;-60
2022/01/27 02:34:40;;;;;;;2.35;2.00;;;26.50;59.70;;;;;;4940526;28;96864;-65
2022/01/27 02:37:13;;;;;;;3.20;1.52;;;26.50;58.10;;;;;;4943037;28;96993;-62
2022/01/27 02:39:45;;;;;;;1.77;1.67;;;26.20;56.50;;;;;;4942487;28;97717;-60
2022/01/27 02:42:16;;;;;;;2.55;2.35;;;25.90;55.90;;;;;;4944134;28;95988;-61
2022/01/27 02:44:55;;;;;;;2.53;2.30;;;25.70;55.50;;;;;;4943624;28;96398;-61
2022/01/27 02:47:26;;;;;;;2.20;2.10;;;25.60;55.20;;;;;;4937330;28;95869;-63
2022/01/27 02:49:56;;;;;;;2.85;2.20;;;25.50;54.90;;;;;;4944340;28;97147;-61
2022/01/27 02:52:28;;;;;;;2.30;2.20;;;25.40;54.60;;;;;;4945128;28;96099;-57
2022/01/27 02:54:59;;;;;;;3.13;2.22;;;25.40;54.40;;;;;;4945927;28;95620;-58
2022/01/27 02:57:30;;;;;;;2.40;2.20;;;25.30;54.00;;;;;;4943398;28;97275;-60
2022/01/27 03:00:03;;;;;;;2.50;2.40;;;25.30;53.90;;;;;;4942814;28;97165;-59
2022/01/27 03:02:35;;;;;;;2.85;2.65;;;25.20;53.70;;;;;;4936376;28;95526;-59
2022/01/27 03:05:07;;;;;;;2.42;2.22;;;25.20;53.70;;;;;;4955158;28;95843;-59
2022/01/27 03:07:39;;;;;;;4.15;2.58;;;25.20;53.40;;;;;;4944937;28;96596;-61
2022/01/27 03:10:10;;;;;;;2.45;2.25;;;25.20;53.30;;;;;;4947549;28;95907;-64
2022/01/27 03:12:42;;;;;;;3.42;2.20;;;25.20;53.70;;;;;;4949111;28;95409;-60
2022/01/27 03:15:13;;;;;;;4.63;2.42;;;25.20;53.90;;;;;;4940446;28;95267;-61
2022/01/27 03:17:45;;;;;;;2.65;2.45;;;25.20;53.90;;;;;;4946279;28;102752;-60
2022/01/27 03:20:17;;;;;;;3.20;2.42;;;25.20;53.70;;;;;;4948357;28;96065;-61
2022/01/27 03:22:48;;;;;;;;;;;25.20;53.60;;;;;;4948711;28;95636;-61
2022/01/27 03:25:18;;;;;;;2.10;2.00;;;25.20;53.50;;;;;;4948029;28;95728;-61
2022/01/27 03:27:50;;;;;;;2.22;2.03;;;25.20;53.40;;;;;;4946846;28;96130;-65
2022/01/27 03:30:21;;;;;;;4.03;2.50;;;25.20;53.30;;;;;;4941203;28;96206;-60
2022/01/27 03:32:52;;;;;;;2.72;2.47;;;25.20;53.80;;;;;;4934267;28;95387;-59
2022/01/27 03:35:24;;;;;;;3.17;2.95;;;25.20;54.00;;;;;;4944338;28;97091;-58
2022/01/27 03:37:55;;;;;;;2.25;2.10;;;25.30;54.10;;;;;;4947734;28;96319;-63
2022/01/27 03:40:27;;;;;;;3.17;2.88;;;25.30;53.90;;;;;;4939753;28;95727;-61
2022/01/27 03:43:06;;;;;;;2.55;2.30;;;25.40;54.00;;;;;;4948301;28;95714;-60
2022/01/27 03:45:37;;;;;;;2.63;2.42;;;25.40;53.80;;;;;;4939987;28;95657;-58
2022/01/27 03:48:07;;;;;;;2.33;2.13;;;25.50;53.70;;;;;;4946519;28;97303;-63
2022/01/27 03:50:36;;;;;;;2.90;2.33;;;25.50;53.70;;;;;;4945502;28;96497;-60
2022/01/27 03:53:06;;;;;;;2.75;2.55;;;25.60;42.60;;;;;;4947088;28;95418;-63
2022/01/27 03:55:38;;;;;;;2.00;1.90;;;25.60;53.30;;;;;;4947236;28;95735;-60
2022/01/27 03:58:10;;;;;;;3.00;2.47;;;25.70;53.20;;;;;;4947048;28;96592;-56
2022/01/27 04:00:42;;;;;;;2.20;2.10;;;25.70;53.10;;;;;;4939325;28;95981;-63
2022/01/27 04:03:15;;;;;;;2.50;2.30;;;25.70;53.00;;;;;;4944975;28;95857;-61
2022/01/27 04:05:53;;;;;;;2.50;2.30;;;25.70;53.00;;;;;;4943837;28;95310;-61
2022/01/27 04:08:25;;;;;;;4.20;2.47;;;25.80;53.10;;;;;;4944451;28;96531;-61
2022/01/27 04:10:58;;;;;;;2.65;2.45;;;25.90;53.00;;;;;;4941823;28;96390;-62
2022/01/27 04:13:30;;;;;;;2.70;2.50;;;25.90;53.00;;;;;;4947366;28;95939;-59
2022/01/27 04:16:03;;;;;;;2.45;2.25;;;26.00;50.90;;;;;;4936994;28;95709;-57
2022/01/27 04:18:35;;;;;;;2.58;2.38;;;25.90;52.40;;;;;;4947142;28;96481;-61
2022/01/27 04:21:06;;;;;;;2.30;2.10;;;25.90;52.70;;;;;;4944708;28;95726;-61
2022/01/27 04:23:37;;;;;;;2.50;2.30;;;25.90;52.50;;;;;;4942446;28;95696;-61
2022/01/27 04:26:09;;;;;;;4.88;2.53;;;26.00;52.30;;;;;;4945636;28;95888;-61
2022/01/27 04:28:43;;;;;;;2.53;2.33;;;25.90;52.20;;;;;;4947538;28;96634;-59
2022/01/27 04:31:14;;;;;;;2.40;2.20;;;26.00;52.30;;;;;;4934141;28;98556;-61
2022/01/27 04:33:46;;;;;;;2.17;2.08;;;26.00;52.30;;;;;;4937359;28;96401;-60
2022/01/27 04:36:24;;;;;;;2.67;2.47;;;26.00;52.30;;;;;;4942984;28;95909;-60
2022/01/27 04:39:14;;;;;;;2.50;2.30;;;26.10;52.40;;;;;;4942669;28;97432;-57
2022/01/27 04:42:05;;;;;;;2.40;2.20;;;26.00;52.60;;;;;;4945095;28;95427;-58
2022/01/27 04:47:27;;;;;;;2.20;1.98;;;26.40;53.30;;;;;;4937898;28;95799;-58
2022/01/27 04:49:58;;;;;;;2.20;2.10;;;26.50;53.40;;;;;;4940946;28;96113;-57
2022/01/27 04:52:30;;;;;;;;;;;26.60;53.60;;;;;;4946103;28;95764;-58
2022/01/27 04:55:08;;;;;;;2.22;2.05;;;26.80;53.90;;;;;;4960455;28;95642;-56
2022/01/27 04:57:42;;;;;;;2.03;1.92;;;26.90;54.00;;;;;;4976238;28;96143;-60
2022/01/27 05:00:22;;;;;;;2.20;2.00;;;27.00;54.10;;;;;;4936450;28;96215;-58
2022/01/27 05:02:57;;;;;;;;;;;27.10;54.10;;;;;;4946507;28;102597;-60
2022/01/27 05:05:31;;;;;;;1.92;1.83;;;27.10;54.20;;;;;;4946665;28;95855;-58
2022/01/27 05:08:03;;;;;;;1.80;1.70;;;27.30;54.50;;;;;;4943811;28;95862;-60
2022/01/27 05:10:35;;;;;;;1.73;1.63;;;27.40;54.40;;;;;;4946087;28;95393;-59
2022/01/27 05:13:16;;;;;;;1.75;1.65;;;27.50;54.60;;;;;;4945709;28;96495;-59
2022/01/27 05:15:47;;;;;;;1.80;1.70;;;27.70;54.60;;;;;;4936052;28;95938;-58
2022/01/27 05:18:20;;;;;;;1.80;1.70;;;27.80;54.40;;;;;;4944241;28;95944;-58
2022/01/27 05:20:52;;;;;;;1.40;1.30;;;27.90;54.40;;;;;;4935804;28;96499;-61
2022/01/27 05:23:23;;;;;;;1.75;1.65;;;28.00;54.30;;;;;;4941502;28;97932;-61
2022/01/27 05:25:53;;;;;;;1.50;1.40;;;28.20;54.30;;;;;;4940580;28;95799;-62
2022/01/27 05:28:25;;;;;;;2.22;1.83;;;28.30;54.20;;;;;;4946573;28;95806;-58
2022/01/27 05:30:57;;;;;;;1.90;1.80;;;28.40;54.30;;;;;;4932467;28;99087;-59
2022/01/27 05:33:28;;;;;;;2.47;1.77;;;28.20;53.40;;;;;;4933267;28;96041;-59
2022/01/27 05:36:00;;;;;;;2.05;1.95;;;28.00;51.80;;;;;;4944668;28;95656;-57
2022/01/27 05:38:31;;;;;;;2.00;1.80;;;27.80;51.30;;;;;;4945059;28;96024;-60
2022/01/27 05:41:05;;;;;;;2.53;2.10;;;27.70;51.10;;;;;;4942536;28;97317;-60
2022/01/27 05:43:36;;;;;;;2.88;1.90;;;27.50;50.70;;;;;;4938581;28;95798;-60
2022/01/27 05:46:07;;;;;;;2.15;1.95;;;27.50;44.80;;;;;;4933417;28;95957;-60
2022/01/27 05:48:37;;;;;;;;;;;27.40;50.60;;;;;;4941185;28;97353;-59
2022/01/27 05:51:09;;;;;;;2.22;2.13;;;27.30;50.40;;;;;;4942542;28;98699;-56
2022/01/27 05:53:40;;;;;;;1.95;1.85;;;27.30;51.10;;;;;;4943521;28;97199;-60
2022/01/27 05:56:11;;;;;;;2.20;2.10;;;27.30;51.00;;;;;;4938601;28;95817;-59
2022/01/27 05:58:42;;;;;;;3.10;2.45;;;27.30;51.10;;;;;;4944362;28;96301;-59
2022/01/27 06:01:14;;;;;;;2.15;2.05;;;27.30;44.90;;;;;;4934587;28;96016;-58
2022/01/27 06:03:46;;;;;;;1.85;1.75;;;27.30;51.20;;;;;;4942337;28;95698;-60
2022/01/27 06:06:18;;;;;;;2.35;2.15;;;27.30;51.40;;;;;;4943219;28;95755;-56
2022/01/27 06:08:49;;;;;;;1.98;1.88;;;27.30;51.20;;;;;;4945007;28;95654;-59
2022/01/27 06:11:21;;;;;;;2.30;2.13;;;27.20;51.20;;;;;;4941694;28;95396;-61
2022/01/27 06:13:51;;;;;;;2.28;2.17;;;27.40;38.30;;;;;;4942696;28;95977;-60
2022/01/27 06:16:21;;;;;;;2.53;2.33;;;27.30;50.90;;;;;;4938132;28;95621;-61
2022/01/27 06:18:54;;;;;;;1.77;1.65;;;27.30;50.70;;;;;;4939599;28;95730;-58
2022/01/27 06:21:24;;;;;;;2.20;2.00;;;27.30;43.90;;;;;;4941403;28;96148;-60
2022/01/27 06:23:58;;;;;;;2.70;2.50;;;27.20;51.60;;;;;;4946542;28;95741;-58
2022/01/27 06:26:29;;;;;;;2.40;2.20;;;27.30;39.80;;;;;;4939853;28;95618;-58
2022/01/27 06:29:01;;;;;;;1.98;1.88;;;27.20;51.20;;;;;;4940502;28;96075;-55
2022/01/27 06:31:35;;;;;;;2.25;2.15;;;27.20;51.60;;;;;;4931622;28;98358;-61
2022/01/27 06:34:07;;;;;;;2.03;1.92;;;27.20;51.40;;;;;;4939301;28;95732;-62
2022/01/27 06:36:38;;;;;;;2.35;2.15;;;27.20;50.70;;;;;;4943011;28;96065;-57
2022/01/27 06:39:10;;;;;;;1.88;1.77;;;27.10;50.80;;;;;;4945277;28;95910;-59
2022/01/27 06:41:42;;;;;;;2.60;2.13;;;27.20;44.20;;;;;;4941827;28;96935;-59
2022/01/27 06:44:14;;;;;;;1.85;1.75;;;27.10;50.90;;;;;;4940750;28;95887;-62
2022/01/27 06:46:45;;;;;;;1.80;1.70;;;27.00;50.20;;;;;;4930365;28;98822;-59
2022/01/27 06:49:17;;;;;;;2.28;2.13;;;27.00;50.30;;;;;;4942769;28;95965;-59
2022/01/27 06:51:48;;;;;;;2.00;1.90;;;26.90;50.00;;;;;;4943248;28;96499;-59
2022/01/27 06:54:20;;;;;;;2.85;2.20;;;26.90;50.10;;;;;;4977678;28;97320;-62
2022/01/27 06:56:50;;;;;;;2.30;1.95;;;27.00;43.20;;;;;;4947396;28;95632;-58
2022/01/27 06:59:19;;;;;;;2.27;2.17;;;26.90;50.10;;;;;;4949871;28;96131;-61
2022/01/27 07:01:50;;;;;;;2.70;2.50;;;26.90;49.40;;;;;;4943229;28;96424;-60
2022/01/27 07:04:22;;;;;;;2.13;1.98;;;26.80;49.40;;;;;;4950998;28;95693;-62
2022/01/27 07:06:53;;;;;;;2.17;1.75;;;26.70;49.30;;;;;;4977551;28;95945;-61
2022/01/27 07:09:23;;;;;;;3.78;2.10;;;26.70;49.40;;;;;;4948953;28;96070;-59
2022/01/27 07:11:54;;;;;;;2.50;2.20;;;26.70;49.40;;;;;;4960814;28;96549;-60
2022/01/27 07:14:24;;;;;;;2.53;1.90;;;26.70;49.40;;;;;;4943997;28;97074;-60
2022/01/27 07:16:56;;;;;;;2.15;1.95;;;26.60;49.40;;;;;;4938632;28;97073;-59
2022/01/27 07:19:27;;;;;;;2.60;2.40;;;26.60;49.40;;;;;;4978567;28;95717;-58
2022/01/27 07:21:58;;;;;;;2.45;2.17;;;26.60;49.50;;;;;;4980478;28;96655;-58
2022/01/27 07:24:29;;;;;;;2.08;1.90;;;26.60;49.60;;;;;;4938905;28;96075;-58
2022/01/27 07:27:00;;;;;;;2.85;2.40;;;26.50;49.50;;;;;;4948798;28;96810;-59
2022/01/27 07:29:31;;;;;;;2.67;2.10;;;26.50;49.70;;;;;;4949270;28;95682;-58
2022/01/27 07:32:03;;;;;;;2.30;2.10;;;26.40;49.60;;;;;;4932532;28;96473;-60
2022/01/27 07:34:35;;;;;;;2.35;2.20;;;26.40;49.60;;;;;;4944789;28;95921;-58
2022/01/27 07:37:06;;;;;;;2.63;1.95;;;26.40;49.70;;;;;;4945654;28;95825;-59
2022/01/27 07:39:38;;;;;;;3.05;2.75;;;26.40;49.80;;;;;;4948693;28;96071;-57
2022/01/27 07:42:10;;;;;;;2.58;2.38;;;26.40;49.80;;;;;;4946609;28;96923;-59
2022/01/27 07:44:41;;;;;;;2.67;2.55;;;26.40;49.80;;;;;;4946430;28;95736;-58
2022/01/27 07:47:12;;;;;;;2.33;2.13;;;26.40;49.80;;;;;;4942259;28;95869;-60
2022/01/27 07:49:41;;;;;;;;;;;26.30;49.80;;;;;;4950043;28;95916;-58
2022/01/27 07:52:13;;;;;;;3.03;2.60;;;26.30;49.80;;;;;;4947951;28;96768;-61
2022/01/27 07:54:45;;;;;;;2.65;2.08;;;26.30;49.80;;;;;;4941263;28;95653;-59
2022/01/27 07:57:16;;;;;;;2.42;2.22;;;26.20;49.60;;;;;;4946943;28;97156;-58
2022/01/27 07:59:47;;;;;;;2.85;2.58;;;26.20;49.80;;;;;;4943330;28;95656;-59
2022/01/27 08:02:18;;;;;;;2.55;2.35;;;26.10;49.80;;;;;;4940599;28;96442;-58
2022/01/27 08:04:52;;;;;;;2.67;2.47;;;26.10;49.70;;;;;;4947978;28;95751;-59
2022/01/27 08:07:22;;;;;;;2.15;2.03;;;26.10;49.80;;;;;;4975965;28;96101;-59
2022/01/27 08:09:53;;;;;;;;;;;26.20;50.20;;;;;;4946087;28;98234;-59
2022/01/27 08:12:23;;;;;;;2.72;2.53;;;26.30;50.40;;;;;;4944037;28;95926;-59
2022/01/27 08:14:55;;;;;;;4.15;2.13;;;26.30;50.30;;;;;;4945836;28;95624;-60
2022/01/27 08:17:25;;;;;;;2.38;2.17;;;26.40;50.40;;;;;;4937795;28;96112;-60
2022/01/27 08:19:56;;;;;;;2.05;1.90;;;26.40;50.40;;;;;;4943943;28;95383;-58
2022/01/27 08:22:27;;;;;;;2.10;2.00;;;26.40;50.50;;;;;;4940924;28;96159;-60
2022/01/27 08:24:58;;;;;;;3.15;2.30;;;26.50;50.60;;;;;;4942610;28;96991;-58
2022/01/27 08:27:31;;;;;;;2.03;1.92;;;26.50;50.80;;;;;;4945788;28;95887;-60
2022/01/27 08:30:05;;;;;;;2.08;1.95;;;26.50;50.80;;;;;;4943331;28;95218;-60
2022/01/27 08:35:20;;;;;;;2.50;2.00;;;26.50;51.00;;;;;;4942107;28;96077;-58
2022/01/27 08:37:52;;;;;;;2.22;2.05;;;26.50;51.00;;;;;;4945480;28;95864;-59
2022/01/27 08:40:25;;;;;;;2.08;1.95;;;26.50;51.20;;;;;;4943707;28;96364;-56
2022/01/27 08:43:10;;;;;;;1.85;1.75;;;26.50;51.20;;;;;;4941727;28;97863;-61
2022/01/27 08:45:42;;;;;;;2.10;1.90;;;26.50;51.40;;;;;;4935955;28;95975;-59
2022/01/27 08:48:17;;;;;;;2.22;2.03;;;26.50;51.40;;;;;;4946276;28;95624;-58
2022/01/27 08:50:59;;;;;;;1.92;1.83;;;26.50;51.50;;;;;;4961832;28;96244;-57
2022/01/27 08:53:50;;;;;;;2.05;1.85;;;26.50;51.60;;;;;;4942365;28;96683;-59
2022/01/27 08:56:20;;;;;;;2.08;1.92;;;26.50;51.70;;;;;;4944856;28;97304;-60
2022/01/27 08:58:50;;;;;;;1.83;1.73;;;26.50;51.80;;;;;;4945477;28;95711;-59
2022/01/27 09:01:23;;;;;;;1.70;1.60;;;26.50;50.40;;;;;;4936303;28;95830;-60
2022/01/27 09:03:55;;;;;;;1.98;1.80;;;26.50;52.00;;;;;;4940364;28;96256;-57
2022/01/27 09:06:28;;;;;;;2.17;2.08;;;26.50;45.50;;;;;;4943239;28;95846;-57
2022/01/27 09:09:00;;;;;;;2.00;1.90;;;26.50;52.10;;;;;;4940983;28;95855;-59
2022/01/27 09:11:32;;;;;;;1.80;1.70;;;26.70;40.00;;;;;;4945823;28;95987;-58
2022/01/27 09:14:04;;;;;;;1.85;1.75;;;26.40;52.10;;;;;;4946143;28;96095;-59
2022/01/27 09:16:35;;;;;;;1.80;1.70;;;26.50;52.30;;;;;;4934984;28;97065;-59
2022/01/27 09:19:27;;;;;;;1.67;1.58;;;26.40;52.20;;;;;;4949020;28;95617;-59
2022/01/27 09:21:57;;;;;;;2.00;1.90;;;26.40;52.30;;;;;;4949594;28;96548;-60
2022/01/27 09:24:37;;;;;;;2.13;1.92;;;26.40;52.40;;;;;;4945523;28;96190;-57
2022/01/27 09:27:09;;;;;;;1.52;1.42;;;26.40;52.40;;;;;;4945586;28;95868;-59
2022/01/27 09:29:45;;;;;;;1.67;1.58;;;26.40;52.50;;;;;;4942734;28;95987;-59
2022/01/27 09:32:18;;;;;;;2.08;1.98;;;26.40;52.60;;;;;;4930416;28;95872;-58
2022/01/27 09:34:50;;;;;;;1.80;1.70;;;26.40;52.60;;;;;;4938550;28;96090;-59
2022/01/27 09:37:22;;;;;;;1.80;1.70;;;26.40;52.70;;;;;;4941976;28;95822;-58
2022/01/27 09:39:54;;;;;;;1.90;1.80;;;26.40;52.70;;;;;;4941595;28;95315;-57
2022/01/27 09:42:28;;;;;;;2.03;1.85;;;26.40;52.80;;;;;;4939321;28;95582;-59
2022/01/27 09:45:02;;;;;;;1.70;1.60;;;26.30;52.80;;;;;;4933333;28;98016;-61
2022/01/27 09:47:35;;;;;;;1.75;1.65;;;26.30;52.80;;;;;;4943015;28;95769;-62
2022/01/27 09:52:44;;;;;;;1.75;1.65;;;26.30;53.00;;;;;;4940864;28;95784;-63
2022/01/27 09:55:16;;;;;;;2.03;1.90;;;26.30;53.10;;;;;;4943160;28;96323;-62
2022/01/27 09:57:48;;;;;;;2.03;1.92;;;26.20;53.10;;;;;;4942167;28;96230;-61
2022/01/27 10:00:21;;;;;;;2.20;2.00;;;26.20;54.20;;;;;;4932313;28;99315;-57
2022/01/27 10:03:05;;;;;;;2.20;2.10;;;26.20;56.10;;;;;;4941430;28;95297;-61
2022/01/27 10:05:38;;;;;;;2.13;2.03;;;26.30;55.40;;;;;;4952410;28;98131;-61
2022/01/27 10:08:14;;;;;;;2.60;2.40;;;26.30;56.50;;;;;;4939645;28;98425;-62
2022/01/27 10:10:49;;;;;;;3.08;2.50;;;26.30;56.50;;;;;;4941403;28;95850;-56
2022/01/27 10:13:35;;;;;;;2.88;2.67;;;26.20;57.40;;;;;;4941896;28;95314;-61
2022/01/27 10:16:09;;;;;;;3.17;2.88;;;26.20;59.60;;;;;;4942087;28;97802;-62
2022/01/27 10:18:44;;;;;;;2.50;2.30;;;26.30;59.40;;;;;;4944344;28;95504;-59
2022/01/27 10:21:15;;;;;;;2.97;2.72;;;26.30;59.90;;;;;;4946767;28;96036;-58
2022/01/27 10:23:51;;;;;;;4.90;3.47;;;26.30;61.40;;;;;;4950547;28;95499;-60
2022/01/27 10:26:24;;;;;;;6.80;3.33;;;26.30;62.10;;;;;;4942842;28;96175;-58
2022/01/27 10:29:09;;;;;;;4.55;4.18;;;26.40;64.20;;;;;;4975831;28;97772;-57
2022/01/27 10:31:41;;;;;;;5.28;3.90;;;26.30;65.70;;;;;;4931304;28;96283;-58
2022/01/27 10:34:15;;;;;;;5.38;3.72;;;26.30;66.90;;;;;;4971345;28;95503;-62
2022/01/27 10:36:46;;;;;;;5.05;3.70;;;26.30;67.10;;;;;;4943677;28;96122;-62
2022/01/27 10:39:23;;;;;;;4.93;3.80;;;26.20;67.90;;;;;;4944341;28;95856;-59
2022/01/27 10:42:07;;;;;;;3.60;3.30;;;26.20;63.50;;;;;;4944919;28;95736;-60
2022/01/27 10:47:38;;;;;;;4.63;3.70;;;26.10;69.20;;;;;;4944818;28;96460;-59
2022/01/27 10:50:11;;;;;;;5.25;3.60;;;26.00;69.70;;;;;;4945911;28;98480;-61
2022/01/27 10:52:55;;;;;;;10.07;3.70;;;26.00;70.10;;;;;;4947654;28;95822;-58
2022/01/27 10:55:28;;;;;;;4.22;3.83;;;26.00;70.80;;;;;;4945020;28;96269;-57
2022/01/27 10:57:59;;;;;;;6.65;3.88;;;26.00;71.00;;;;;;4945758;28;96181;-57
2022/01/27 11:00:38;;;;;;;6.57;4.32;;;25.90;70.80;;;;;;4936866;28;96035;-59
2022/01/27 11:03:10;;;;;;;6.18;3.72;;;25.90;72.10;;;;;;4962179;28;95784;-59
2022/01/27 11:05:42;;;;;;;4.50;3.90;;;25.90;72.40;;;;;;4947728;28;95848;-59
2022/01/27 11:08:13;;;;;;;6.40;4.32;;;25.90;73.60;;;;;;4950599;28;96087;-58
2022/01/27 11:10:45;;;;;;;5.33;4.70;;;25.90;72.00;;;;;;4943672;28;95826;-59
2022/01/27 11:13:20;;;;;;;4.47;4.07;;;25.90;72.60;;;;;;4948722;28;95271;-59
2022/01/27 11:15:54;;;;;;;4.30;4.00;;;25.80;73.90;;;;;;4932638;28;95994;-56
2022/01/27 11:18:28;;;;;;;6.32;4.13;;;25.80;71.00;;;;;;4946818;28;96208;-56
2022/01/27 11:21:07;;;;;;;5.53;4.05;;;25.90;70.40;;;;;;4949700;28;96320;-58
2022/01/27 11:24:05;;;;;;;4.20;3.90;;;25.90;71.10;;;;;;4949645;28;95315;-60
2022/01/27 11:26:40;;;;;;;5.13;3.33;;;25.90;71.40;;;;;;4973848;28;95436;-58
2022/01/27 11:29:14;;;;;;;3.72;3.42;;;26.00;69.00;;;;;;4950159;28;95920;-62
2022/01/27 11:32:30;;;;;;;6.20;3.63;;;26.10;69.70;;;;;;4929858;28;96304;-61
2022/01/27 11:35:02;;;;;;;4.18;3.67;;;26.30;69.10;;;;;;4945867;28;100125;-61
2022/01/27 11:37:36;;;;;;;5.85;2.80;;;26.60;67.50;;;;;;4979670;28;95794;-59
2022/01/27 11:40:12;;;;;;;4.35;2.70;;;26.50;64.30;;;;;;4947567;28;96129;-57
2022/01/27 11:42:59;;;;;;;4.38;3.40;;;26.60;65.80;;;;;;4939180;28;95746;-59
2022/01/27 11:45:34;;;;;;;3.10;2.80;;;26.50;67.80;;;;;;4940101;28;95788;-56
2022/01/27 11:48:13;;;;;;;5.03;3.70;;;26.70;67.10;;;;;;4945647;28;96925;-60
2022/01/27 11:53:49;;;;;;;3.85;3.40;;;27.00;66.80;;;;;;4948985;28;95724;-54
2022/01/27 11:56:36;;;;;;;;;;;27.30;66.80;;;;;;4948998;28;95836;-59
2022/01/27 11:59:08;;;;;;;4.05;3.40;;;27.20;66.40;;;;;;4949645;28;95787;-58
2022/01/27 12:01:40;;;;;;;3.80;3.25;;;27.40;58.90;;;;;;4943020;28;95878;-58
2022/01/27 12:04:16;;;;;;;2.65;2.42;;;27.30;66.60;;;;;;4949925;28;96188;-56
2022/01/27 12:06:49;;;;;;;5.72;3.10;;;27.50;65.80;;;;;;4950398;28;95900;-57
2022/01/27 12:09:21;;;;;;;2.88;2.67;;;27.60;65.70;;;;;;4950109;28;95481;-57
2022/01/27 12:12:06;;;;;;;4.40;3.00;;;27.80;65.40;;;;;;4948179;28;96106;-59
2022/01/27 12:14:41;;;;;;;3.63;2.60;;;27.80;65.50;;;;;;4944893;28;95705;-58
2022/01/27 12:17:15;;;;;;;4.45;2.40;;;27.60;60.90;;;;;;4937692;28;96753;-58
2022/01/27 12:20:00;;;;;;;2.72;2.08;;;27.10;59.10;;;;;;4978914;28;95944;-59
2022/01/27 12:22:45;;;;;;;2.17;1.98;;;26.90;58.60;;;;;;4947624;28;96484;-59
2022/01/27 12:25:18;;;;;;;2.90;2.55;;;26.70;57.90;;;;;;4947192;28;95938;-59
2022/01/27 12:27:58;;;;;;;2.80;2.03;;;26.60;57.50;;;;;;4947144;28;95858;-58
2022/01/27 12:30:30;;;;;;;2.55;2.35;;;26.60;56.90;;;;;;4940340;28;96726;-59
2022/01/27 12:33:02;;;;;;;2.50;2.30;;;26.50;56.50;;;;;;4939027;28;102649;-59
2022/01/27 12:35:33;;;;;;;1.92;1.83;;;26.50;56.70;;;;;;4946622;28;95944;-58
2022/01/27 12:38:04;;;;;;;2.10;1.92;;;26.50;56.40;;;;;;4948625;28;95615;-59
2022/01/27 12:40:36;;;;;;;1.70;1.60;;;26.50;56.00;;;;;;4945397;28;95691;-58
2022/01/27 12:43:15;;;;;;;2.90;2.70;;;26.40;55.80;;;;;;4943252;28;96107;-58
2022/01/27 12:45:47;;;;;;;2.35;2.15;;;26.40;56.20;;;;;;4937147;28;95894;-57
2022/01/27 12:48:25;;;;;;;2.13;1.90;;;26.40;56.80;;;;;;4948804;28;96294;-61
2022/01/27 12:50:57;;;;;;;2.00;1.90;;;26.40;57.20;;;;;;4944005;28;95829;-60
2022/01/27 12:53:31;;;;;;;2.55;2.35;;;26.50;50.80;;;;;;4943066;28;98002;-56
2022/01/27 12:56:09;;;;;;;2.20;2.10;;;26.50;57.90;;;;;;4937841;28;95962;-61
2022/01/27 12:58:40;;;;;;;2.33;2.15;;;26.50;57.90;;;;;;4944742;28;96103;-58
2022/01/27 13:01:12;;;;;;;2.00;1.90;;;26.50;57.50;;;;;;4938443;28;95399;-58
2022/01/27 13:04:00;;;;;;;2.50;2.30;;;26.40;58.80;;;;;;4944714;28;96487;-58
2022/01/27 13:06:32;;;;;;;2.95;2.47;;;26.30;58.80;;;;;;4939477;28;96040;-56
2022/01/27 13:09:16;;;;;;;3.50;3.28;;;26.20;63.20;;;;;;4943800;28;96187;-63
2022/01/27 13:24:53;;;;;;;5.50;5.00;;;24.00;78.10;;;;;;5008109;27;97002;-61
2022/01/27 13:27:26;;;;;;;5.15;4.63;;;24.00;71.30;;;;;;4989364;28;95698;-61
2022/01/27 13:29:59;;;;;;;7.00;5.75;;;24.10;76.70;;;;;;5026298;27;98053;-51
2022/01/27 13:32:31;;;;;;;6.32;5.60;;;24.00;79.70;;;;;;4965812;27;98266;-64
2022/01/27 13:35:03;;;;;;;5.07;4.68;;;23.50;81.80;;;;;;4974528;28;97841;-63
2022/01/27 13:37:38;;;;;;;5.25;4.30;;;23.50;81.80;;;;;;4978253;28;95735;-64
2022/01/27 13:42:58;;;;;;;4.22;3.78;;;23.70;80.30;;;;;;4980913;28;96124;-65
2022/01/27 13:45:36;;;;;;;4.38;3.97;;;24.10;79.70;;;;;;4973784;28;96698;-62
2022/01/27 13:48:21;;;;;;;10.25;3.10;;;24.30;78.90;;;;;;4960636;28;96001;-62
2022/01/27 13:50:59;;;;;;;3.63;3.17;;;24.30;78.60;;;;;;4958419;28;95714;-62
2022/01/27 13:53:31;;;;;;;4.38;3.50;;;24.50;77.90;;;;;;4959523;28;98238;-61
2022/01/27 13:56:05;;;;;;;3.25;3.03;;;24.50;77.60;;;;;;4959070;28;95849;-61
2022/01/27 13:58:35;;;;;;;4.10;3.70;;;24.60;69.80;;;;;;4974957;28;95947;-56
2022/01/27 14:01:13;;;;;;;5.43;3.55;;;24.60;76.40;;;;;;4954339;28;95478;-59
2022/01/27 14:03:46;;;;;;;;;;;24.60;76.60;;;;;;4961932;28;96600;-61
2022/01/27 14:06:17;;;;;;;3.80;3.45;;;24.70;75.10;;;;;;4962169;28;95560;-62
2022/01/27 14:08:55;;;;;;;4.28;3.88;;;24.70;74.90;;;;;;4961044;28;98638;-61
2022/01/27 14:11:36;;;;;;;3.97;3.33;;;24.80;75.50;;;;;;4962237;28;95764;-61
2022/01/27 14:14:07;;;;;;;4.60;3.70;;;24.80;76.80;;;;;;4950915;28;96023;-59
2022/01/27 14:16:38;;;;;;;3.70;3.40;;;24.70;76.00;;;;;;4952859;28;97256;-59
2022/01/27 14:19:15;;;;;;;4.15;3.67;;;24.70;75.90;;;;;;4961804;28;95657;-61
2022/01/27 14:21:49;;;;;;;4.32;3.67;;;24.70;75.40;;;;;;4959513;28;95824;-62
2022/01/27 14:25:00;;;;;;;4.80;3.58;;;24.80;74.90;;;;;;4962279;28;96061;-59
2022/01/27 14:27:35;;;;;;;4.40;4.00;;;24.70;76.30;;;;;;4952878;28;96454;-61
2022/01/27 14:30:12;;;;;;;4.25;3.83;;;24.70;76.30;;;;;;4957634;28;95381;-60